Alaska — SYDS — position and weather

sailwx.info

Track history (hours):
 
Tides and Currents Weather Stations Pressure Air Temp Water Temp Dewpoint Dewpoint Depression Visibility Wind Speed Wind Dir Waves Ship Positions

Alaska

Last reported at 2017-Aug-17 12:46 UTC. Time now 2017-Aug-17 13:46 UTC.
Position N 40°13' E 004°31'.

Length 274 m; draft 9.2 m.

Type: Tanker. MMSI: 240472000.

Date/timePositionNaut miles runAvg speedWind from/ knotsBaromVisibWave heightAir tempDewpointWater temp
2017-Aug-17 12:46N 40°13' E 004°31'3616.4
2017-Aug-17 10:33N 40°26' E 003°46'116.4
2017-Aug-17 10:30N 40°26' E 003°45'1316.4
2017-Aug-17 09:43N 40°31' E 003°30'416.4
2017-Aug-17 09:30N 40°32' E 003°25'816.2
2017-Aug-17 09:00N 40°35' E 003°15'816.3
2017-Aug-17 08:30N 40°37' E 003°05'816.2
2017-Aug-17 08:00N 40°39' E 002°55'816.3
2017-Aug-17 07:31N 40°41' E 002°44'816.1
2017-Aug-17 07:00N 40°44' E 002°34'815.9
2017-Aug-17 06:30N 40°46' E 002°24'815.8
2017-Aug-17 06:00N 40°49' E 002°14'815.9
2017-Aug-17 05:30N 40°51' E 002°04'816.2
2017-Aug-17 05:00N 40°53' E 001°54'816.0
2017-Aug-17 04:30N 40°56' E 001°44'816.1
2017-Aug-17 04:00N 40°58' E 001°34'816.0
2017-Aug-17 03:30N 41°01' E 001°24'713.8
2017-Aug-17 03:00N 41°03' E 001°15'2 0.5
2017-Aug-16 23:43N 41°04' E 001°13'0 0.1
2017-Aug-16 23:25N 41°04' E 001°13'0 0.0
2017-Aug-16 05:37N 41°04' E 001°13'0 0.0
2017-Aug-16 05:13N 41°04' E 001°13'0 0.0
2017-Aug-16 04:49N 41°04' E 001°13'0 0.0
2017-Aug-16 04:19N 41°04' E 001°13'0 0.0
2017-Aug-15 18:01N 41°04' E 001°13'0 0.1
2017-Aug-15 17:55N 41°04' E 001°13'0 0.0
2017-Aug-15 17:25N 41°04' E 001°13'0 0.0
2017-Aug-15 16:31N 41°04' E 001°13'0 0.0
2017-Aug-15 16:25N 41°04' E 001°13'0 0.0
2017-Aug-15 15:55N 41°04' E 001°13'0 0.0
2017-Aug-15 07:43N 41°04' E 001°13'0 0.1
2017-Aug-15 07:13N 41°04' E 001°13'0 0.3
2017-Aug-15 06:58N 41°04' E 001°13'1 1.4
2017-Aug-15 06:30N 41°03' E 001°14'1 1.8
2017-Aug-15 05:41N 41°03' E 001°16'1 3.0
2017-Aug-15 05:29N 41°04' E 001°16'0 0.4
2017-Aug-15 04:55N 41°04' E 001°17'0 0.1
2017-Aug-15 04:28N 41°04' E 001°17'0 0.0
2017-Aug-15 03:58N 41°04' E 001°17'0 0.1
2017-Aug-15 03:19N 41°04' E 001°17'0 0.0
2017-Aug-15 02:52N 41°04' E 001°17'0 0.1
2017-Aug-15 02:22N 41°04' E 001°17'0 0.1
2017-Aug-15 01:58N 41°04' E 001°17'0 0.0
2017-Aug-15 01:19N 41°04' E 001°17'0 0.0
2017-Aug-15 00:55N 41°04' E 001°17'0 0.0
2017-Aug-15 00:25N 41°04' E 001°17'0 0.0
2017-Aug-14 23:01N 41°04' E 001°17'0 0.0
2017-Aug-14 21:55N 41°04' E 001°17'0 0.0
2017-Aug-14 20:55N 41°04' E 001°17'0 0.0
2017-Aug-14 18:01N 41°04' E 001°17'0 0.1
2017-Aug-14 17:55N 41°04' E 001°17'0 0.0
2017-Aug-14 17:25N 41°04' E 001°17'0 0.0
2017-Aug-14 16:49N 41°04' E 001°17'0 0.0
2017-Aug-14 16:13N 41°04' E 001°17'0 0.1
2017-Aug-14 13:31N 41°04' E 001°16'0 0.2
2017-Aug-14 13:16N 41°04' E 001°16'0 0.0
2017-Aug-14 12:55N 41°04' E 001°16'0 0.0
2017-Aug-14 12:25N 41°04' E 001°16'0 0.0
2017-Aug-14 11:55N 41°04' E 001°16'0 0.0
2017-Aug-14 11:25N 41°04' E 001°16'0 0.0
2017-Aug-14 10:55N 41°04' E 001°16'0 0.0
2017-Aug-14 10:25N 41°04' E 001°16'0 0.0
2017-Aug-14 08:25N 41°04' E 001°16'0 0.0
2017-Aug-14 07:43N 41°04' E 001°16'0 0.0
2017-Aug-14 06:19N 41°04' E 001°16'0 0.0
2017-Aug-14 05:49N 41°04' E 001°16'0 0.0
2017-Aug-14 05:25N 41°04' E 001°16'0 0.0
2017-Aug-14 04:49N 41°04' E 001°16'0 0.0
2017-Aug-14 04:25N 41°04' E 001°16'0 0.0
2017-Aug-14 03:37N 41°04' E 001°16'0 0.0
2017-Aug-14 03:25N 41°04' E 001°16'  
2017-Aug-11 16:43N 41°04' E 001°16'  
2017-Aug-09 09:09N 40°48' E 001°31'5 9.2
2017-Aug-09 08:37N 40°44' E 001°35'112.7
2017-Aug-09 08:30N 40°43' E 001°36'611.6
2017-Aug-09 08:00N 40°37' E 001°35'612.0
2017-Aug-09 07:30N 40°32' E 001°31'611.9
2017-Aug-09 07:00N 40°27' E 001°28'612.1
2017-Aug-09 06:30N 40°21' E 001°25'612.3
2017-Aug-09 06:00N 40°15' E 001°22'612.2
2017-Aug-09 05:30N 40°10' E 001°18'612.2
2017-Aug-09 05:00N 40°04' E 001°15'612.4
2017-Aug-09 04:30N 39°59' E 001°12'612.4
2017-Aug-09 04:00N 39°53' E 001°09'612.5
2017-Aug-09 03:30N 39°47' E 001°05'612.7
2017-Aug-09 03:00N 39°41' E 001°02'3612.7
2017-Aug-09 00:12N 39°09' E 000°43'312.9
2017-Aug-09 00:00N 39°06' E 000°42'712.9
2017-Aug-08 23:30N 39°00' E 000°39'1012.8
2017-Aug-08 22:43N 38°51' E 000°34'313.0
2017-Aug-08 22:28N 38°48' E 000°32'613.1
2017-Aug-08 21:59N 38°43' E 000°28'613.1
2017-Aug-08 21:30N 38°37' E 000°24'612.9
2017-Aug-08 21:00N 38°32' E 000°20'612.4
2017-Aug-08 20:30N 38°27' E 000°15'811.8
2017-Aug-08 19:52N 38°21' E 000°10'411.8
2017-Aug-08 19:30N 38°17' E 000°07'812.1
2017-Aug-08 18:48N 38°10' E 000°01'412.6
2017-Aug-08 18:30N 38°07' W 000°02'612.6
2017-Aug-08 18:00N 38°02' W 000°07'612.7
2017-Aug-08 17:30N 37°56' W 000°11'612.5
2017-Aug-08 16:59N 37°51' W 000°16'612.8
2017-Aug-08 16:30N 37°46' W 000°20'713.1
2017-Aug-08 16:00N 37°40' W 000°25'713.3
2017-Aug-08 15:30N 37°35' W 000°29'713.2
2017-Aug-08 15:00N 37°30' W 000°35'713.0
2017-Aug-08 14:30N 37°25' W 000°40'713.1
2017-Aug-08 14:00N 37°22' W 000°47'712.9
2017-Aug-08 13:30N 37°17' W 000°54'612.9
2017-Aug-08 13:00N 37°13' W 000°59'712.8
2017-Aug-08 12:29N 37°08' W 001°05'612.9
2017-Aug-08 12:00N 37°04' W 001°11'712.9
2017-Aug-08 11:27N 36°60' W 001°18'612.8
2017-Aug-08 10:58N 36°56' W 001°24'612.9
2017-Aug-08 10:30N 36°52' W 001°29'712.8
2017-Aug-08 09:59N 36°47' W 001°35'613.1
2017-Aug-08 09:30N 36°43' W 001°41'712.9
2017-Aug-08 08:59N 36°38' W 001°47'612.7
2017-Aug-08 08:30N 36°34' W 001°53'712.8
2017-Aug-08 07:55N 36°29' W 002°00'513.3
2017-Aug-08 07:30N 36°26' W 002°05'1612.2
2017-Aug-08 06:09N 36°21' W 002°25'412.8
2017-Aug-08 05:53N 36°21' W 002°29'13113.4
2017-Aug-07 20:10N 36°01' W 005°09'213.6
2017-Aug-07 20:00N 36°01' W 005°12'713.6
2017-Aug-07 19:30N 35°59' W 005°20'714.6
2017-Aug-07 19:00N 35°57' W 005°28'1214.5
2017-Aug-07 18:11N 35°55' W 005°43'214.5
2017-Aug-07 18:00N 35°54' W 005°46'  
Track history (hours):
 
Tides and Currents Weather Stations Pressure Air Temp Water Temp Dewpoint Dewpoint Depression Visibility Wind Speed Wind Dir Waves Ship Positions

Alaska

Last reported at 2017-Aug-17 12:46 UTC. Time now 2017-Aug-17 13:46 UTC.
Position N 40°13' E 004°31'.

Length 274 m; draft 9.2 m.

Type: Tanker. MMSI: 240472000.

Date/timePositionNaut miles runAvg speedWind from/ knotsBaromVisibWave heightAir tempDewpointWater temp
2017-Aug-17 12:46N 40°13' E 004°31'3616.4
2017-Aug-17 10:33N 40°26' E 003°46'116.4
2017-Aug-17 10:30N 40°26' E 003°45'1316.4
2017-Aug-17 09:43N 40°31' E 003°30'416.4
2017-Aug-17 09:30N 40°32' E 003°25'816.2
2017-Aug-17 09:00N 40°35' E 003°15'816.3
2017-Aug-17 08:30N 40°37' E 003°05'816.2
2017-Aug-17 08:00N 40°39' E 002°55'816.3
2017-Aug-17 07:31N 40°41' E 002°44'816.1
2017-Aug-17 07:00N 40°44' E 002°34'815.9
2017-Aug-17 06:30N 40°46' E 002°24'815.8
2017-Aug-17 06:00N 40°49' E 002°14'815.9
2017-Aug-17 05:30N 40°51' E 002°04'816.2
2017-Aug-17 05:00N 40°53' E 001°54'816.0
2017-Aug-17 04:30N 40°56' E 001°44'816.1
2017-Aug-17 04:00N 40°58' E 001°34'816.0
2017-Aug-17 03:30N 41°01' E 001°24'713.8
2017-Aug-17 03:00N 41°03' E 001°15'2 0.5
2017-Aug-16 23:43N 41°04' E 001°13'0 0.1
2017-Aug-16 23:25N 41°04' E 001°13'0 0.0
2017-Aug-16 05:37N 41°04' E 001°13'0 0.0
2017-Aug-16 05:13N 41°04' E 001°13'0 0.0
2017-Aug-16 04:49N 41°04' E 001°13'0 0.0
2017-Aug-16 04:19N 41°04' E 001°13'0 0.0
2017-Aug-15 18:01N 41°04' E 001°13'0 0.1
2017-Aug-15 17:55N 41°04' E 001°13'0 0.0
2017-Aug-15 17:25N 41°04' E 001°13'0 0.0
2017-Aug-15 16:31N 41°04' E 001°13'0 0.0
2017-Aug-15 16:25N 41°04' E 001°13'0 0.0
2017-Aug-15 15:55N 41°04' E 001°13'0 0.0
2017-Aug-15 07:43N 41°04' E 001°13'0 0.1
2017-Aug-15 07:13N 41°04' E 001°13'0 0.3
2017-Aug-15 06:58N 41°04' E 001°13'1 1.4
2017-Aug-15 06:30N 41°03' E 001°14'1 1.8
2017-Aug-15 05:41N 41°03' E 001°16'1 3.0
2017-Aug-15 05:29N 41°04' E 001°16'0 0.4
2017-Aug-15 04:55N 41°04' E 001°17'0 0.1
2017-Aug-15 04:28N 41°04' E 001°17'0 0.0
2017-Aug-15 03:58N 41°04' E 001°17'0 0.1
2017-Aug-15 03:19N 41°04' E 001°17'0 0.0
2017-Aug-15 02:52N 41°04' E 001°17'0 0.1
2017-Aug-15 02:22N 41°04' E 001°17'0 0.1
2017-Aug-15 01:58N 41°04' E 001°17'0 0.0
2017-Aug-15 01:19N 41°04' E 001°17'0 0.0
2017-Aug-15 00:55N 41°04' E 001°17'0 0.0
2017-Aug-15 00:25N 41°04' E 001°17'0 0.0
2017-Aug-14 23:01N 41°04' E 001°17'0 0.0
2017-Aug-14 21:55N 41°04' E 001°17'0 0.0
2017-Aug-14 20:55N 41°04' E 001°17'0 0.0
2017-Aug-14 18:01N 41°04' E 001°17'0 0.1
2017-Aug-14 17:55N 41°04' E 001°17'0 0.0
2017-Aug-14 17:25N 41°04' E 001°17'0 0.0
2017-Aug-14 16:49N 41°04' E 001°17'0 0.0
2017-Aug-14 16:13N 41°04' E 001°17'0 0.1
2017-Aug-14 13:31N 41°04' E 001°16'0 0.2
2017-Aug-14 13:16N 41°04' E 001°16'0 0.0
2017-Aug-14 12:55N 41°04' E 001°16'0 0.0
2017-Aug-14 12:25N 41°04' E 001°16'0 0.0
2017-Aug-14 11:55N 41°04' E 001°16'0 0.0
2017-Aug-14 11:25N 41°04' E 001°16'0 0.0
2017-Aug-14 10:55N 41°04' E 001°16'0 0.0
2017-Aug-14 10:25N 41°04' E 001°16'0 0.0
2017-Aug-14 08:25N 41°04' E 001°16'0 0.0
2017-Aug-14 07:43N 41°04' E 001°16'0 0.0
2017-Aug-14 06:19N 41°04' E 001°16'0 0.0
2017-Aug-14 05:49N 41°04' E 001°16'0 0.0
2017-Aug-14 05:25N 41°04' E 001°16'0 0.0
2017-Aug-14 04:49N 41°04' E 001°16'0 0.0
2017-Aug-14 04:25N 41°04' E 001°16'0 0.0
2017-Aug-14 03:37N 41°04' E 001°16'0 0.0
2017-Aug-14 03:25N 41°04' E 001°16'  
2017-Aug-11 16:43N 41°04' E 001°16'  
2017-Aug-09 09:09N 40°48' E 001°31'5 9.2
2017-Aug-09 08:37N 40°44' E 001°35'112.7
2017-Aug-09 08:30N 40°43' E 001°36'611.6
2017-Aug-09 08:00N 40°37' E 001°35'612.0
2017-Aug-09 07:30N 40°32' E 001°31'611.9
2017-Aug-09 07:00N 40°27' E 001°28'612.1
2017-Aug-09 06:30N 40°21' E 001°25'612.3
2017-Aug-09 06:00N 40°15' E 001°22'612.2
2017-Aug-09 05:30N 40°10' E 001°18'612.2
2017-Aug-09 05:00N 40°04' E 001°15'612.4
2017-Aug-09 04:30N 39°59' E 001°12'612.4
2017-Aug-09 04:00N 39°53' E 001°09'612.5
2017-Aug-09 03:30N 39°47' E 001°05'612.7
2017-Aug-09 03:00N 39°41' E 001°02'3612.7
2017-Aug-09 00:12N 39°09' E 000°43'312.9
2017-Aug-09 00:00N 39°06' E 000°42'712.9
2017-Aug-08 23:30N 39°00' E 000°39'1012.8
2017-Aug-08 22:43N 38°51' E 000°34'313.0
2017-Aug-08 22:28N 38°48' E 000°32'613.1
2017-Aug-08 21:59N 38°43' E 000°28'613.1
2017-Aug-08 21:30N 38°37' E 000°24'612.9
2017-Aug-08 21:00N 38°32' E 000°20'612.4
2017-Aug-08 20:30N 38°27' E 000°15'811.8
2017-Aug-08 19:52N 38°21' E 000°10'411.8
2017-Aug-08 19:30N 38°17' E 000°07'812.1
2017-Aug-08 18:48N 38°10' E 000°01'412.6
2017-Aug-08 18:30N 38°07' W 000°02'612.6
2017-Aug-08 18:00N 38°02' W 000°07'612.7
2017-Aug-08 17:30N 37°56' W 000°11'612.5
2017-Aug-08 16:59N 37°51' W 000°16'612.8
2017-Aug-08 16:30N 37°46' W 000°20'713.1
2017-Aug-08 16:00N 37°40' W 000°25'713.3
2017-Aug-08 15:30N 37°35' W 000°29'713.2
2017-Aug-08 15:00N 37°30' W 000°35'713.0
2017-Aug-08 14:30N 37°25' W 000°40'713.1
2017-Aug-08 14:00N 37°22' W 000°47'712.9
2017-Aug-08 13:30N 37°17' W 000°54'612.9
2017-Aug-08 13:00N 37°13' W 000°59'712.8
2017-Aug-08 12:29N 37°08' W 001°05'612.9
2017-Aug-08 12:00N 37°04' W 001°11'712.9
2017-Aug-08 11:27N 36°60' W 001°18'612.8
2017-Aug-08 10:58N 36°56' W 001°24'612.9
2017-Aug-08 10:30N 36°52' W 001°29'712.8
2017-Aug-08 09:59N 36°47' W 001°35'613.1
2017-Aug-08 09:30N 36°43' W 001°41'712.9
2017-Aug-08 08:59N 36°38' W 001°47'612.7
2017-Aug-08 08:30N 36°34' W 001°53'712.8
2017-Aug-08 07:55N 36°29' W 002°00'513.3
2017-Aug-08 07:30N 36°26' W 002°05'1612.2
2017-Aug-08 06:09N 36°21' W 002°25'412.8
2017-Aug-08 05:53N 36°21' W 002°29'13113.4
2017-Aug-07 20:10N 36°01' W 005°09'213.6
2017-Aug-07 20:00N 36°01' W 005°12'713.6
2017-Aug-07 19:30N 35°59' W 005°20'714.6
2017-Aug-07 19:00N 35°57' W 005°28'1214.5
2017-Aug-07 18:11N 35°55' W 005°43'214.5
2017-Aug-07 18:00N 35°54' W 005°46'  

Dump ship's entire track history